Meteo Giornale » Osservazioni meteo Stati Uniti (USA) » Lancaster Fairfield
ore: 17:53 - Osservazioni Meteo Lancaster Fairfield
Lat. 39° 45' N Lon. 82° 39' W Alt. 264 metri s.l.m.
32 °C
Poco Nuvoloso
Temp. 24 Ore
21 °C
33 °C
Ovest/Sud-Ovest
9.3 Km/h
Dew point 23 °C
Umidità 59 %
Visibilità 10 Km
Il sole sorge alle ore 06:58
Il sole tramonta alle ore 20:02
| Data e Ora | Cielo e Fenomeni | T °C | DP °C | Um. % | Pres. hPa | Vis. km | Vento km/h | |
|---|---|---|---|---|---|---|---|---|
| Oggi h: 17:53 | Poco Nuvoloso | 32 | 23 | 59 | 1018 | 10 | O/SO 9.3 | |
| Oggi h: 16:53 | Molto Nuvoloso | 33 | 23 | 55 | 1017 | 10 | SO 11.1 | |
| Oggi h: 15:53 | Poco Nuvoloso | 33 | 23 | 55 | 1017 | 10 | S 16.7 | |
| Oggi h: 14:53 | Poco Nuvoloso | 32 | 24 | 62 | 1018 | 10 | E/SE 18.5 | |
| Oggi h: 13:53 | Molto Nuvoloso | 31 | 23 | 62 | 1019 | 10 | S/SE 11.1 | |
| Oggi h: 12:53 | Sereno | 29 | 23 | 70 | 1019 | 10 | E 14.8 | |
| Oggi h: 11:53 | Molto Nuvoloso | 29 | 23 | 70 | 1020 | 10 | NO 11.1 | |
| Oggi h: 10:53 | Sereno | 29 | 23 | 70 | 1019 | 10 | O 11.1 | |
| Oggi h: 09:53 | Sereno | 27 | 22 | 74 | 1019 | 10 | O/SO 11.1 | |
| Oggi h: 08:53 | Molto Nuvoloso | 26 | 21 | 73 | 1019 | 10 | S/SO 9.3 | |
| Oggi h: 07:53 | Coperto | 24 | 21 | 83 | 1019 | 10 | N 5.5 | |
| Oggi h: 06:53 | Molto Nuvoloso | 24 | 21 | 83 | 1018 | 10 | N 5.5 | |
| Oggi h: 05:53 | Poco Nuvoloso | 23 | 21 | 88 | 1018 | 10 | N 5.5 | |
| Oggi h: 04:53 | Sereno | 22 | 21 | 94 | 1018 | 10 | N 0 | |
| Oggi h: 03:53 | Sereno | 21 | 21 | 100 | 1018 | 10 | N 0 | |
| Oggi h: 02:53 | Sereno | 22 | 21 | 94 | 1018 | 10 | N 0 | |
| Oggi h: 01:53 | Sereno | 23 | 21 | 88 | 1018 | 10 | N 0 | |
| Oggi h: 00:53 | Sereno | 24 | 21 | 83 | 1018 | 10 | N 5.5 | |
| Ieri h: 23:53 | Sereno | 24 | 21 | 83 | 1017 | 10 | S 11.1 | |
| Ieri h: 22:53 | Sereno | 22 | 22 | 100 | 1018 | 14 | N 0 | |
| Ieri h: 21:53 | Sereno | 22 | 22 | 100 | 1019 | 14 | N 0 | |
| Ieri h: 20:53 | Sereno | 24 | 23 | 94 | 1018 | 10 | N 0 | |
| Ieri h: 19:53 | Sereno | 26 | 24 | 88 | 1018 | 10 | N 0 | |
| Ieri h: 18:53 | Sereno | 28 | 23 | 74 | 1018 | 10 | N 0 | |



